createdAt,value
2019-05-15T04:47:20.372Z,17.76
2019-05-15T04:50:08.631Z,17.94
2019-05-15T04:53:39.647Z,18.31
2019-05-15T04:57:10.080Z,18.46
2019-05-15T05:00:44.200Z,18.66
2019-05-15T05:04:14.271Z,18.87
2019-05-15T05:07:44.376Z,18.96
2019-05-15T05:11:14.969Z,18.85
2019-05-15T05:14:45.224Z,18.73
2019-05-15T05:18:15.365Z,18.62
2019-05-15T05:21:45.457Z,18.87
2019-05-15T05:25:15.534Z,19.08
2019-05-15T05:28:45.633Z,19.23
2019-05-15T05:32:28.829Z,19.05
2019-05-15T05:36:04.506Z,18.98
2019-05-15T05:39:34.654Z,19.12
2019-05-15T05:43:04.675Z,19.27
2019-05-15T05:46:34.752Z,18.95
2019-05-15T05:50:07.775Z,18.63
2019-05-15T05:53:38.469Z,18.58
2019-05-15T05:57:09.077Z,18.13
2019-05-15T06:00:41.471Z,17.89
2019-05-15T06:04:11.540Z,17.2
2019-05-15T06:07:41.758Z,17.39
2019-05-15T06:11:11.797Z,17.55
2019-05-15T06:14:41.842Z,18.05
2019-05-15T06:18:11.931Z,18.29
2019-05-15T06:21:53.581Z,18.44
2019-05-15T06:25:30.517Z,18.54
2019-05-15T06:29:00.860Z,18.64
2019-05-15T06:32:30.962Z,18.8
2019-05-15T06:36:01.121Z,18.48
2019-05-15T06:39:31.174Z,18.3
2019-05-15T06:43:01.311Z,18.55
2019-05-15T06:46:31.561Z,18.84
2019-05-15T06:50:02.156Z,19.29
2019-05-15T06:53:32.295Z,19.47
2019-05-15T06:57:02.433Z,19.76
2019-05-15T07:00:19.052Z,19.94
2019-05-15T07:03:49.369Z,19.47
2019-05-15T07:07:19.505Z,19.25
2019-05-15T07:10:49.794Z,19.47
2019-05-15T07:14:19.910Z,19.7
2019-05-15T07:17:50.106Z,19.9
2019-05-15T07:21:20.690Z,20.05
2019-05-15T07:24:50.959Z,20.45
2019-05-15T07:28:21.063Z,20.6
2019-05-15T07:31:51.215Z,20.97
2019-05-15T07:35:24.226Z,21.41
2019-05-15T07:38:54.518Z,21.44
2019-05-15T07:42:24.638Z,21.22
2019-05-15T07:45:55.959Z,21.47
2019-05-15T07:49:28.740Z,21.79
2019-05-15T07:52:59.168Z,22.42
2019-05-15T07:56:29.301Z,23.01
2019-05-15T07:59:59.364Z,23.29
2019-05-15T08:03:29.460Z,23.23
2019-05-15T08:06:59.599Z,23.66
2019-05-15T08:10:29.616Z,23.91
2019-05-15T08:13:59.705Z,23.92
2019-05-15T08:17:29.784Z,24.09
2019-05-15T08:20:59.838Z,24.12
2019-05-15T08:24:30.120Z,24.38
2019-05-15T08:28:00.236Z,24.42
2019-05-15T08:31:30.368Z,24.5
2019-05-15T08:35:00.420Z,23.91
2019-05-15T08:38:30.997Z,23.24
2019-05-15T08:42:01.252Z,22.78
2019-05-15T08:45:31.232Z,22.03
2019-05-15T08:49:01.389Z,21.69
2019-05-15T08:52:31.510Z,21.53
2019-05-15T08:56:01.614Z,21.96
2019-05-15T08:59:31.730Z,21.82
2019-05-15T09:00:18.601Z,21.74
2019-05-15T09:03:49.091Z,21.46
2019-05-15T09:07:19.228Z,21.28
2019-05-15T09:10:50.232Z,21.2
2019-05-15T09:14:20.607Z,21
2019-05-15T09:17:50.747Z,20.71
2019-05-15T09:21:20.844Z,20.77
2019-05-15T09:24:50.930Z,20.56
2019-05-15T09:28:20.989Z,20.08
2019-05-15T09:31:51.162Z,20.37
2019-05-15T09:35:21.552Z,20.5
2019-05-15T09:38:51.669Z,20.78
2019-05-15T09:42:21.876Z,20.9
2019-05-15T09:45:52.176Z,21.15
2019-05-15T09:49:22.281Z,21.32
2019-05-15T09:52:52.438Z,21.39
2019-05-15T09:56:22.622Z,21.15
2019-05-15T09:59:52.692Z,21.24
2019-05-15T10:03:22.780Z,20.72
2019-05-15T10:06:53.079Z,20.87
2019-05-15T10:10:23.143Z,21.06
2019-05-15T10:13:53.274Z,21.08
2019-05-15T10:17:23.402Z,21.04
2019-05-15T10:20:53.463Z,20.81
2019-05-15T10:24:23.642Z,20.64
2019-05-15T10:27:53.679Z,20.92
2019-05-15T10:31:23.897Z,21.05
2019-05-15T10:34:54.046Z,21.29
2019-05-15T10:38:24.494Z,21.41
2019-05-15T10:41:54.514Z,21.61
2019-05-15T10:45:24.669Z,22.1
2019-05-15T10:48:55.186Z,22.07
2019-05-15T10:52:25.189Z,22.48
2019-05-15T10:55:55.460Z,23.13
2019-05-15T10:59:27.611Z,23.28
2019-05-15T11:00:19.471Z,23.23
2019-05-15T11:03:49.963Z,22.96
2019-05-15T11:07:20.163Z,22.89
2019-05-15T11:10:50.227Z,22.59
2019-05-15T11:14:20.452Z,22.25
2019-05-15T11:17:50.631Z,22.09
2019-05-15T11:21:20.722Z,22.44
2019-05-15T11:24:53.012Z,22.94
2019-05-15T11:28:23.286Z,22.66
2019-05-15T11:31:53.382Z,22.92
2019-05-15T11:35:23.565Z,23.15
2019-05-15T11:38:53.606Z,23.57
2019-05-15T11:42:23.883Z,23.8
2019-05-15T11:45:54.031Z,23.92
2019-05-15T11:49:24.139Z,24.01
2019-05-15T11:52:54.288Z,24.04
2019-05-15T11:56:24.406Z,24.04
2019-05-15T11:59:55.535Z,23.76
2019-05-15T12:03:25.891Z,23.55
2019-05-15T12:06:59.807Z,23.32
2019-05-15T12:10:32.503Z,23.09
2019-05-15T12:14:02.730Z,22.73
2019-05-15T12:17:34.234Z,22.41
2019-05-15T12:21:04.463Z,22.09
2019-05-15T12:24:36.907Z,21.79
2019-05-15T12:28:10.010Z,21.43
2019-05-15T12:31:40.182Z,21.17
2019-05-15T12:35:11.325Z,20.94
2019-05-15T12:38:41.358Z,20.99
2019-05-15T13:00:18.576Z,20.31
2019-05-15T13:03:48.796Z,20.41
2019-05-15T13:07:19.948Z,20.24
2019-05-15T13:10:50.186Z,20.43
2019-05-15T13:14:20.377Z,20.74
2019-05-15T13:17:52.823Z,20.71
2019-05-15T13:21:23.831Z,20.67
2019-05-15T13:24:53.854Z,20.46
2019-05-15T13:28:23.931Z,20.4
2019-05-15T13:31:54.109Z,20.32
2019-05-15T13:35:24.234Z,20.13
2019-05-15T13:38:54.436Z,19.95
2019-05-15T13:42:24.603Z,19.95
2019-05-15T13:45:54.751Z,19.9
2019-05-15T13:53:44.269Z,20.16
2019-05-15T13:56:40.317Z,20.58
2019-05-15T14:00:11.028Z,20.87
2019-05-15T14:03:41.175Z,20.92
2019-05-15T14:07:11.157Z,21.11
2019-05-15T14:10:41.295Z,21.14
2019-05-15T14:11:31.132Z,21.18
2019-05-15T14:15:02.033Z,21.11
2019-05-15T14:18:32.128Z,20.77
2019-05-15T14:22:02.297Z,20.6
2019-05-15T14:25:32.401Z,20.32
2019-05-15T14:29:05.548Z,20.16
2019-05-15T14:32:38.864Z,19.83
2019-05-15T14:36:09.579Z,19.69
2019-05-15T14:39:39.593Z,19.45
2019-05-15T14:43:09.727Z,19.54
2019-05-15T14:46:39.754Z,19.75
2019-05-15T14:50:10.541Z,20
2019-05-15T14:53:40.690Z,20.06
2019-05-15T14:57:10.784Z,20.17
2019-05-15T15:00:19.937Z,20.24
2019-05-15T15:03:50.639Z,20.33
2019-05-15T15:07:20.639Z,20.31
2019-05-15T15:10:50.748Z,20.23
2019-05-15T15:14:20.771Z,19.75
2019-05-15T15:17:50.942Z,19.15
2019-05-15T15:21:22.732Z,18.92
2019-05-15T15:24:53.102Z,18.95
2019-05-15T15:28:23.242Z,19.17
2019-05-15T15:31:53.388Z,19.29
2019-05-15T15:35:23.484Z,19.41
2019-05-15T15:38:53.543Z,19.46
2019-05-15T15:42:23.671Z,19.32
2019-05-15T15:45:53.745Z,19.07
2019-05-15T15:49:23.774Z,19.04
2019-05-15T15:52:53.752Z,18.86
2019-05-15T15:56:23.855Z,18.98
2019-05-15T15:59:53.812Z,19.11
2019-05-15T16:03:23.971Z,19.02
2019-05-15T16:06:54.053Z,19.11
2019-05-15T16:10:24.167Z,18.9
2019-05-15T16:13:54.372Z,19.02
2019-05-15T16:17:24.602Z,19.05
2019-05-15T16:20:54.698Z,19.06
2019-05-15T16:24:24.798Z,19.08
2019-05-15T16:27:54.915Z,19.09
2019-05-15T16:31:24.986Z,18.88
2019-05-15T16:34:55.160Z,18.89
2019-05-15T16:38:25.233Z,18.79
2019-05-15T16:41:55.718Z,18.72
2019-05-15T16:45:28.674Z,18.64
2019-05-15T16:48:58.969Z,18.6
2019-05-15T16:52:31.035Z,18.64
2019-05-15T16:56:01.491Z,18.7
2019-05-15T16:59:35.726Z,18.76
2019-05-15T17:00:18.633Z,18.77
2019-05-15T17:03:48.992Z,18.65
2019-05-15T17:07:19.280Z,18.54
2019-05-15T17:10:49.576Z,18.54
2019-05-15T17:14:19.985Z,18.29
2019-05-15T17:17:50.113Z,18.22
2019-05-15T17:21:20.145Z,18.14
2019-05-15T17:24:50.201Z,17.96
2019-05-15T17:28:20.325Z,17.99
2019-05-15T17:31:50.423Z,18.04
2019-05-15T17:35:20.636Z,18.01
2019-05-15T17:38:50.712Z,18.02
2019-05-15T17:42:20.883Z,18.1
2019-05-15T17:45:51.064Z,18.19
2019-05-15T17:49:21.121Z,18.24
2019-05-15T17:52:51.167Z,17.98
2019-05-15T17:56:21.315Z,17.57
2019-05-15T17:59:51.458Z,17.43
2019-05-15T18:03:21.495Z,17.52
2019-05-15T18:06:51.506Z,17.61
2019-05-15T18:10:21.720Z,17.63
2019-05-15T18:13:51.859Z,17.76
2019-05-15T18:17:22.018Z,17.87
2019-05-15T18:20:52.167Z,17.91
2019-05-15T18:24:22.233Z,17.72
2019-05-15T18:27:52.329Z,17.74
2019-05-15T18:31:22.411Z,17.62
2019-05-15T18:34:52.541Z,17.51
2019-05-15T18:38:22.599Z,17.53
2019-05-15T18:41:52.611Z,17.61
2019-05-15T18:45:22.684Z,17.36
2019-05-15T18:48:53.105Z,17.34
2019-05-15T18:52:23.494Z,17.4
2019-05-15T18:55:53.754Z,17.3
2019-05-15T18:59:23.921Z,17.22
2019-05-15T19:00:18.409Z,17.19
2019-05-15T19:03:48.625Z,17.09
2019-05-15T19:07:18.796Z,17.05
2019-05-15T19:10:48.902Z,17.04
2019-05-15T19:14:19.266Z,17.07
2019-05-15T19:17:49.566Z,16.91
2019-05-15T19:21:19.905Z,17.02
2019-05-15T19:24:50.148Z,17.16
2019-05-15T19:28:20.327Z,17.23
2019-05-15T19:31:50.404Z,17.28
2019-05-15T19:35:20.489Z,17.4
2019-05-15T19:38:50.608Z,17.36
2019-05-15T19:42:20.694Z,17.39
2019-05-15T19:45:50.876Z,17.42
2019-05-15T19:49:20.890Z,17.39
2019-05-15T19:52:50.951Z,17.43
2019-05-15T19:56:20.892Z,17.47
2019-05-15T19:59:51.001Z,17.47
2019-05-15T20:03:21.053Z,17.53
2019-05-15T20:06:51.097Z,17.28
2019-05-15T20:10:21.138Z,17.26
2019-05-15T20:13:51.262Z,17.27
2019-05-15T20:17:21.217Z,17.27
2019-05-15T20:20:51.372Z,17.24
2019-05-15T20:24:21.753Z,17.19
2019-05-15T20:27:51.834Z,17.12
2019-05-15T20:31:21.940Z,17.07
2019-05-15T20:34:52.173Z,17.08
2019-05-15T20:38:22.304Z,16.84
2019-05-15T20:41:52.361Z,16.91
2019-05-15T20:45:22.518Z,17.01
2019-05-15T20:48:52.622Z,17.1
2019-05-15T20:52:22.691Z,17.12
2019-05-15T20:55:52.745Z,17.24
2019-05-15T20:59:22.868Z,17.25
2019-05-15T21:00:18.981Z,17.28
2019-05-15T21:03:51.014Z,17.3
2019-05-15T21:07:35.007Z,16.84
2019-05-15T21:11:11.906Z,16.64
2019-05-15T21:14:42.397Z,16.57
2019-05-15T21:18:15.784Z,16.68
2019-05-15T21:21:50.114Z,16.62
2019-05-15T21:25:20.210Z,16.53
2019-05-15T21:28:50.231Z,16.52
2019-05-15T21:32:20.295Z,16.46
2019-05-15T21:35:50.425Z,16.49
2019-05-15T21:39:20.572Z,16.42
2019-05-15T21:42:50.697Z,16.38
2019-05-15T21:46:20.767Z,16.29
2019-05-15T21:49:50.850Z,16.3
2019-05-15T21:53:21.010Z,16.33
2019-05-15T21:56:51.088Z,16.32
2019-05-15T22:00:28.872Z,16.28
2019-05-15T22:03:59.121Z,16.37
2019-05-15T22:07:29.178Z,16.29
2019-05-15T22:10:59.303Z,16.27
2019-05-15T22:14:29.382Z,16.2
2019-05-15T22:17:59.439Z,16.15
2019-05-15T22:21:29.639Z,16.2
2019-05-15T22:24:59.783Z,16.3
2019-05-15T22:28:29.945Z,16.34
2019-05-15T22:32:00.050Z,16.35
2019-05-15T22:35:30.175Z,16.31
2019-05-15T22:39:00.261Z,16.2
2019-05-15T22:42:31.804Z,16.32
2019-05-15T22:46:02.204Z,16.47
2019-05-15T22:49:32.301Z,16.6
2019-05-15T22:53:02.462Z,16.66
2019-05-15T22:56:32.573Z,16.75
2019-05-15T23:00:17.165Z,16.64
2019-05-15T23:03:47.934Z,16.57
2019-05-15T23:07:18.925Z,16.47
2019-05-15T23:10:49.284Z,16.41
2019-05-15T23:14:19.374Z,16.38
2019-05-15T23:17:49.458Z,16.36
2019-05-15T23:21:19.549Z,16.23
2019-05-15T23:24:49.637Z,16.28
2019-05-15T23:28:19.689Z,16.44
2019-05-15T23:31:49.926Z,16.65
2019-05-15T23:35:20.046Z,16.67
2019-05-15T23:38:50.215Z,16.72
2019-05-15T23:42:20.340Z,16.75
2019-05-15T23:45:50.416Z,16.77
2019-05-15T23:49:20.467Z,16.85
2019-05-15T23:52:50.537Z,16.85
2019-05-15T23:56:20.587Z,16.93
2019-05-15T23:59:50.581Z,16.99
